sensor_id;sensor_type;location;lat;lon;timestamp;P1;durP1;ratioP1;P2;durP2;ratioP2
17784;SDS011;9016;53.582;10.062;2023-08-08T00:00:21;0.30;;;0.30;;
17784;SDS011;9016;53.582;10.062;2023-08-08T00:02:50;0.23;;;0.23;;
17784;SDS011;9016;53.582;10.062;2023-08-08T00:05:18;0.20;;;0.20;;
17784;SDS011;9016;53.582;10.062;2023-08-08T00:07:46;0.30;;;0.30;;
17784;SDS011;9016;53.582;10.062;2023-08-08T00:10:19;0.30;;;0.30;;
17784;SDS011;9016;53.582;10.062;2023-08-08T00:12:47;0.30;;;0.30;;
17784;SDS011;9016;53.582;10.062;2023-08-08T00:15:15;0.20;;;0.20;;
17784;SDS011;9016;53.582;10.062;2023-08-08T00:17:42;0.30;;;0.30;;
17784;SDS011;9016;53.582;10.062;2023-08-08T00:20:11;0.30;;;0.30;;
17784;SDS011;9016;53.582;10.062;2023-08-08T00:22:39;0.30;;;0.30;;
17784;SDS011;9016;53.582;10.062;2023-08-08T00:25:08;0.20;;;0.20;;
17784;SDS011;9016;53.582;10.062;2023-08-08T00:27:37;0.30;;;0.30;;
17784;SDS011;9016;53.582;10.062;2023-08-08T00:30:10;0.20;;;0.20;;
17784;SDS011;9016;53.582;10.062;2023-08-08T00:32:39;0.30;;;0.30;;
17784;SDS011;9016;53.582;10.062;2023-08-08T00:35:08;0.23;;;0.23;;
17784;SDS011;9016;53.582;10.062;2023-08-08T00:37:36;0.30;;;0.30;;
17784;SDS011;9016;53.582;10.062;2023-08-08T00:40:04;0.30;;;0.30;;
17784;SDS011;9016;53.582;10.062;2023-08-08T00:42:33;0.40;;;0.40;;
17784;SDS011;9016;53.582;10.062;2023-08-08T00:45:03;0.20;;;0.20;;
17784;SDS011;9016;53.582;10.062;2023-08-08T00:47:31;0.30;;;0.30;;
17784;SDS011;9016;53.582;10.062;2023-08-08T00:50:00;0.20;;;0.20;;
17784;SDS011;9016;53.582;10.062;2023-08-08T00:52:30;0.30;;;0.30;;
17784;SDS011;9016;53.582;10.062;2023-08-08T00:54:58;0.20;;;0.20;;
17784;SDS011;9016;53.582;10.062;2023-08-08T00:57:28;0.40;;;0.40;;
17784;SDS011;9016;53.582;10.062;2023-08-08T00:59:56;0.20;;;0.20;;
17784;SDS011;9016;53.582;10.062;2023-08-08T01:02:25;0.30;;;0.30;;
17784;SDS011;9016;53.582;10.062;2023-08-08T01:05:41;0.20;;;0.20;;
17784;SDS011;9016;53.582;10.062;2023-08-08T01:08:11;0.20;;;0.20;;
17784;SDS011;9016;53.582;10.062;2023-08-08T01:10:44;0.20;;;0.20;;
17784;SDS011;9016;53.582;10.062;2023-08-08T01:13:19;0.30;;;0.30;;
17784;SDS011;9016;53.582;10.062;2023-08-08T01:15:49;0.20;;;0.20;;
17784;SDS011;9016;53.582;10.062;2023-08-08T01:18:19;0.20;;;0.20;;
17784;SDS011;9016;53.582;10.062;2023-08-08T01:20:48;0.20;;;0.20;;
17784;SDS011;9016;53.582;10.062;2023-08-08T01:23:19;0.30;;;0.30;;
17784;SDS011;9016;53.582;10.062;2023-08-08T01:25:55;0.20;;;0.20;;
17784;SDS011;9016;53.582;10.062;2023-08-08T01:28:24;0.20;;;0.20;;
17784;SDS011;9016;53.582;10.062;2023-08-08T01:30:52;0.30;;;0.30;;
17784;SDS011;9016;53.582;10.062;2023-08-08T01:33:20;0.30;;;0.30;;
17784;SDS011;9016;53.582;10.062;2023-08-08T01:35:50;0.30;;;0.30;;
17784;SDS011;9016;53.582;10.062;2023-08-08T01:38:23;0.30;;;0.30;;
17784;SDS011;9016;53.582;10.062;2023-08-08T01:40:57;0.30;;;0.30;;
17784;SDS011;9016;53.582;10.062;2023-08-08T01:43:27;0.23;;;0.23;;
17784;SDS011;9016;53.582;10.062;2023-08-08T01:45:57;0.30;;;0.30;;
17784;SDS011;9016;53.582;10.062;2023-08-08T01:48:27;0.20;;;0.20;;
17784;SDS011;9016;53.582;10.062;2023-08-08T01:50:55;0.30;;;0.30;;
17784;SDS011;9016;53.582;10.062;2023-08-08T01:53:23;0.30;;;0.30;;
17784;SDS011;9016;53.582;10.062;2023-08-08T01:55:51;0.30;;;0.30;;
17784;SDS011;9016;53.582;10.062;2023-08-08T01:58:21;0.37;;;0.37;;
17784;SDS011;9016;53.582;10.062;2023-08-08T02:00:49;0.20;;;0.20;;
17784;SDS011;9016;53.582;10.062;2023-08-08T02:03:17;0.30;;;0.30;;
17784;SDS011;9016;53.582;10.062;2023-08-08T02:05:45;0.30;;;0.30;;
17784;SDS011;9016;53.582;10.062;2023-08-08T02:08:13;0.30;;;0.30;;
17784;SDS011;9016;53.582;10.062;2023-08-08T02:10:41;0.20;;;0.20;;
17784;SDS011;9016;53.582;10.062;2023-08-08T02:13:09;0.30;;;0.30;;
17784;SDS011;9016;53.582;10.062;2023-08-08T02:15:38;0.30;;;0.30;;
17784;SDS011;9016;53.582;10.062;2023-08-08T02:18:06;0.30;;;0.30;;
17784;SDS011;9016;53.582;10.062;2023-08-08T02:20:36;0.27;;;0.27;;
17784;SDS011;9016;53.582;10.062;2023-08-08T02:23:04;0.30;;;0.30;;
17784;SDS011;9016;53.582;10.062;2023-08-08T02:25:32;0.30;;;0.30;;
17784;SDS011;9016;53.582;10.062;2023-08-08T02:28:00;0.20;;;0.20;;
17784;SDS011;9016;53.582;10.062;2023-08-08T02:30:28;0.20;;;0.20;;
17784;SDS011;9016;53.582;10.062;2023-08-08T02:32:57;0.20;;;0.20;;
17784;SDS011;9016;53.582;10.062;2023-08-08T02:35:25;0.30;;;0.30;;
17784;SDS011;9016;53.582;10.062;2023-08-08T02:37:53;0.30;;;0.30;;
17784;SDS011;9016;53.582;10.062;2023-08-08T02:40:21;0.20;;;0.20;;
17784;SDS011;9016;53.582;10.062;2023-08-08T02:42:50;0.20;;;0.20;;
17784;SDS011;9016;53.582;10.062;2023-08-08T02:45:18;0.30;;;0.30;;
17784;SDS011;9016;53.582;10.062;2023-08-08T02:47:46;0.30;;;0.30;;
17784;SDS011;9016;53.582;10.062;2023-08-08T02:50:15;0.30;;;0.30;;
17784;SDS011;9016;53.582;10.062;2023-08-08T02:52:43;0.30;;;0.30;;
17784;SDS011;9016;53.582;10.062;2023-08-08T02:55:12;0.20;;;0.20;;
17784;SDS011;9016;53.582;10.062;2023-08-08T02:57:41;0.30;;;0.30;;
17784;SDS011;9016;53.582;10.062;2023-08-08T03:00:09;0.20;;;0.20;;
17784;SDS011;9016;53.582;10.062;2023-08-08T03:02:38;0.30;;;0.30;;
17784;SDS011;9016;53.582;10.062;2023-08-08T03:05:06;0.30;;;0.30;;
17784;SDS011;9016;53.582;10.062;2023-08-08T03:07:36;0.30;;;0.30;;
17784;SDS011;9016;53.582;10.062;2023-08-08T03:10:04;0.30;;;0.30;;
17784;SDS011;9016;53.582;10.062;2023-08-08T03:12:33;0.30;;;0.30;;
17784;SDS011;9016;53.582;10.062;2023-08-08T03:15:01;0.30;;;0.30;;
17784;SDS011;9016;53.582;10.062;2023-08-08T03:17:30;0.20;;;0.20;;
17784;SDS011;9016;53.582;10.062;2023-08-08T03:19:58;0.23;;;0.23;;
17784;SDS011;9016;53.582;10.062;2023-08-08T03:22:27;0.30;;;0.30;;
17784;SDS011;9016;53.582;10.062;2023-08-08T03:24:56;0.20;;;0.20;;
17784;SDS011;9016;53.582;10.062;2023-08-08T03:27:24;0.30;;;0.30;;
17784;SDS011;9016;53.582;10.062;2023-08-08T03:29:52;0.30;;;0.30;;
17784;SDS011;9016;53.582;10.062;2023-08-08T03:32:20;0.30;;;0.30;;
17784;SDS011;9016;53.582;10.062;2023-08-08T03:34:48;0.30;;;0.30;;
17784;SDS011;9016;53.582;10.062;2023-08-08T03:37:16;0.30;;;0.30;;
17784;SDS011;9016;53.582;10.062;2023-08-08T03:39:44;0.30;;;0.30;;
17784;SDS011;9016;53.582;10.062;2023-08-08T03:42:13;0.30;;;0.30;;
17784;SDS011;9016;53.582;10.062;2023-08-08T03:44:41;0.23;;;0.23;;
17784;SDS011;9016;53.582;10.062;2023-08-08T03:47:11;0.30;;;0.30;;
17784;SDS011;9016;53.582;10.062;2023-08-08T03:49:46;0.20;;;0.20;;
17784;SDS011;9016;53.582;10.062;2023-08-08T03:52:14;0.30;;;0.30;;
17784;SDS011;9016;53.582;10.062;2023-08-08T03:54:42;0.30;;;0.30;;
17784;SDS011;9016;53.582;10.062;2023-08-08T03:57:11;0.23;;;0.23;;
17784;SDS011;9016;53.582;10.062;2023-08-08T03:59:40;0.30;;;0.30;;
17784;SDS011;9016;53.582;10.062;2023-08-08T04:02:08;0.20;;;0.20;;
17784;SDS011;9016;53.582;10.062;2023-08-08T04:04:36;0.27;;;0.27;;
17784;SDS011;9016;53.582;10.062;2023-08-08T04:07:05;0.30;;;0.30;;
17784;SDS011;9016;53.582;10.062;2023-08-08T04:09:33;0.20;;;0.20;;
17784;SDS011;9016;53.582;10.062;2023-08-08T04:12:01;0.30;;;0.30;;
17784;SDS011;9016;53.582;10.062;2023-08-08T04:14:29;0.30;;;0.30;;
17784;SDS011;9016;53.582;10.062;2023-08-08T04:16:58;0.20;;;0.20;;
17784;SDS011;9016;53.582;10.062;2023-08-08T04:19:26;0.20;;;0.20;;
17784;SDS011;9016;53.582;10.062;2023-08-08T04:21:54;0.30;;;0.30;;
17784;SDS011;9016;53.582;10.062;2023-08-08T04:24:23;0.20;;;0.20;;
17784;SDS011;9016;53.582;10.062;2023-08-08T04:26:54;0.30;;;0.30;;
17784;SDS011;9016;53.582;10.062;2023-08-08T04:29:26;0.30;;;0.30;;
17784;SDS011;9016;53.582;10.062;2023-08-08T04:31:54;0.30;;;0.30;;
17784;SDS011;9016;53.582;10.062;2023-08-08T04:34:31;0.30;;;0.30;;
17784;SDS011;9016;53.582;10.062;2023-08-08T04:36:59;0.20;;;0.20;;
17784;SDS011;9016;53.582;10.062;2023-08-08T04:39:30;0.30;;;0.30;;
17784;SDS011;9016;53.582;10.062;2023-08-08T04:41:58;0.30;;;0.30;;
17784;SDS011;9016;53.582;10.062;2023-08-08T04:44:26;0.30;;;0.30;;
17784;SDS011;9016;53.582;10.062;2023-08-08T04:46:58;0.23;;;0.23;;
17784;SDS011;9016;53.582;10.062;2023-08-08T04:49:26;0.20;;;0.20;;
17784;SDS011;9016;53.582;10.062;2023-08-08T04:51:56;0.30;;;0.30;;
17784;SDS011;9016;53.582;10.062;2023-08-08T04:54:25;0.20;;;0.20;;
17784;SDS011;9016;53.582;10.062;2023-08-08T04:56:52;0.30;;;0.30;;
17784;SDS011;9016;53.582;10.062;2023-08-08T04:59:20;0.20;;;0.20;;
17784;SDS011;9016;53.582;10.062;2023-08-08T05:01:49;0.20;;;0.20;;
17784;SDS011;9016;53.582;10.062;2023-08-08T05:04:17;0.30;;;0.30;;
17784;SDS011;9016;53.582;10.062;2023-08-08T05:06:45;0.30;;;0.30;;
17784;SDS011;9016;53.582;10.062;2023-08-08T05:09:15;0.30;;;0.30;;
17784;SDS011;9016;53.582;10.062;2023-08-08T05:11:43;0.27;;;0.27;;
17784;SDS011;9016;53.582;10.062;2023-08-08T05:14:11;0.30;;;0.30;;
17784;SDS011;9016;53.582;10.062;2023-08-08T05:16:39;0.27;;;0.27;;
17784;SDS011;9016;53.582;10.062;2023-08-08T05:19:07;0.30;;;0.30;;
17784;SDS011;9016;53.582;10.062;2023-08-08T05:21:35;0.30;;;0.30;;
17784;SDS011;9016;53.582;10.062;2023-08-08T05:24:04;0.30;;;0.30;;
17784;SDS011;9016;53.582;10.062;2023-08-08T05:26:33;0.30;;;0.30;;
17784;SDS011;9016;53.582;10.062;2023-08-08T05:29:01;0.30;;;0.30;;
17784;SDS011;9016;53.582;10.062;2023-08-08T05:31:29;0.30;;;0.30;;
17784;SDS011;9016;53.582;10.062;2023-08-08T05:33:57;0.30;;;0.30;;
17784;SDS011;9016;53.582;10.062;2023-08-08T05:36:25;0.30;;;0.30;;
17784;SDS011;9016;53.582;10.062;2023-08-08T05:38:53;0.20;;;0.20;;
17784;SDS011;9016;53.582;10.062;2023-08-08T05:41:20;0.30;;;0.30;;
17784;SDS011;9016;53.582;10.062;2023-08-08T05:43:50;0.30;;;0.30;;
17784;SDS011;9016;53.582;10.062;2023-08-08T05:46:18;0.40;;;0.40;;
17784;SDS011;9016;53.582;10.062;2023-08-08T05:48:46;0.30;;;0.30;;
17784;SDS011;9016;53.582;10.062;2023-08-08T05:51:14;0.30;;;0.30;;
17784;SDS011;9016;53.582;10.062;2023-08-08T05:53:42;0.30;;;0.30;;
17784;SDS011;9016;53.582;10.062;2023-08-08T05:56:11;0.30;;;0.30;;
17784;SDS011;9016;53.582;10.062;2023-08-08T05:58:39;0.30;;;0.30;;
17784;SDS011;9016;53.582;10.062;2023-08-08T06:01:08;0.30;;;0.30;;
17784;SDS011;9016;53.582;10.062;2023-08-08T06:03:38;0.20;;;0.20;;
17784;SDS011;9016;53.582;10.062;2023-08-08T06:06:06;0.30;;;0.30;;
17784;SDS011;9016;53.582;10.062;2023-08-08T06:08:34;0.23;;;0.23;;
17784;SDS011;9016;53.582;10.062;2023-08-08T06:11:02;0.20;;;0.20;;
17784;SDS011;9016;53.582;10.062;2023-08-08T06:13:30;0.40;;;0.40;;
17784;SDS011;9016;53.582;10.062;2023-08-08T06:15:58;0.30;;;0.30;;
17784;SDS011;9016;53.582;10.062;2023-08-08T06:18:29;0.30;;;0.30;;
17784;SDS011;9016;53.582;10.062;2023-08-08T06:20:56;0.30;;;0.30;;
17784;SDS011;9016;53.582;10.062;2023-08-08T06:23:24;0.30;;;0.30;;
17784;SDS011;9016;53.582;10.062;2023-08-08T06:25:52;0.30;;;0.30;;
17784;SDS011;9016;53.582;10.062;2023-08-08T06:28:20;0.30;;;0.30;;
17784;SDS011;9016;53.582;10.062;2023-08-08T06:30:48;0.30;;;0.30;;
17784;SDS011;9016;53.582;10.062;2023-08-08T06:33:16;0.30;;;0.30;;
17784;SDS011;9016;53.582;10.062;2023-08-08T06:35:45;0.30;;;0.30;;
17784;SDS011;9016;53.582;10.062;2023-08-08T06:38:13;0.30;;;0.30;;
17784;SDS011;9016;53.582;10.062;2023-08-08T06:40:41;0.30;;;0.30;;
17784;SDS011;9016;53.582;10.062;2023-08-08T06:43:09;0.30;;;0.30;;
17784;SDS011;9016;53.582;10.062;2023-08-08T06:45:38;0.30;;;0.30;;
17784;SDS011;9016;53.582;10.062;2023-08-08T06:48:06;0.30;;;0.30;;
17784;SDS011;9016;53.582;10.062;2023-08-08T06:50:35;0.30;;;0.30;;
17784;SDS011;9016;53.582;10.062;2023-08-08T06:53:05;0.30;;;0.30;;
17784;SDS011;9016;53.582;10.062;2023-08-08T06:55:33;0.50;;;0.50;;
17784;SDS011;9016;53.582;10.062;2023-08-08T06:58:01;0.57;;;0.57;;
17784;SDS011;9016;53.582;10.062;2023-08-08T07:00:29;0.60;;;0.60;;
17784;SDS011;9016;53.582;10.062;2023-08-08T07:02:57;0.60;;;0.60;;
17784;SDS011;9016;53.582;10.062;2023-08-08T07:05:27;0.50;;;0.50;;
17784;SDS011;9016;53.582;10.062;2023-08-08T07:07:56;0.30;;;0.30;;
17784;SDS011;9016;53.582;10.062;2023-08-08T07:10:25;0.43;;;0.43;;
17784;SDS011;9016;53.582;10.062;2023-08-08T07:12:54;0.40;;;0.40;;
17784;SDS011;9016;53.582;10.062;2023-08-08T07:15:22;0.50;;;0.50;;
17784;SDS011;9016;53.582;10.062;2023-08-08T07:17:50;0.60;;;0.60;;
17784;SDS011;9016;53.582;10.062;2023-08-08T07:20:18;0.57;;;0.57;;
17784;SDS011;9016;53.582;10.062;2023-08-08T07:22:46;0.30;;;0.30;;
17784;SDS011;9016;53.582;10.062;2023-08-08T07:25:14;0.70;;;0.70;;
17784;SDS011;9016;53.582;10.062;2023-08-08T07:27:43;0.50;;;0.50;;
17784;SDS011;9016;53.582;10.062;2023-08-08T07:30:13;0.70;;;0.70;;
17784;SDS011;9016;53.582;10.062;2023-08-08T07:32:42;0.60;;;0.60;;
17784;SDS011;9016;53.582;10.062;2023-08-08T07:35:10;0.60;;;0.60;;
17784;SDS011;9016;53.582;10.062;2023-08-08T07:37:38;0.38;;;0.38;;
17784;SDS011;9016;53.582;10.062;2023-08-08T07:40:13;0.40;;;0.40;;
17784;SDS011;9016;53.582;10.062;2023-08-08T07:42:41;0.60;;;0.60;;
17784;SDS011;9016;53.582;10.062;2023-08-08T07:45:11;0.70;;;0.70;;
17784;SDS011;9016;53.582;10.062;2023-08-08T07:47:38;0.70;;;0.70;;
17784;SDS011;9016;53.582;10.062;2023-08-08T07:50:07;0.50;;;0.50;;
17784;SDS011;9016;53.582;10.062;2023-08-08T07:52:35;0.55;;;0.55;;
17784;SDS011;9016;53.582;10.062;2023-08-08T07:55:04;0.60;;;0.60;;
17784;SDS011;9016;53.582;10.062;2023-08-08T07:57:33;0.40;;;0.40;;
17784;SDS011;9016;53.582;10.062;2023-08-08T08:00:01;0.30;;;0.30;;
17784;SDS011;9016;53.582;10.062;2023-08-08T08:02:37;0.30;;;0.30;;
17784;SDS011;9016;53.582;10.062;2023-08-08T08:05:05;0.40;;;0.40;;
17784;SDS011;9016;53.582;10.062;2023-08-08T08:07:34;0.30;;;0.30;;
17784;SDS011;9016;53.582;10.062;2023-08-08T08:10:03;0.40;;;0.40;;
17784;SDS011;9016;53.582;10.062;2023-08-08T08:12:32;0.40;;;0.40;;
17784;SDS011;9016;53.582;10.062;2023-08-08T08:15:01;0.30;;;0.30;;
17784;SDS011;9016;53.582;10.062;2023-08-08T08:17:30;0.30;;;0.30;;
17784;SDS011;9016;53.582;10.062;2023-08-08T08:20:00;0.30;;;0.30;;
17784;SDS011;9016;53.582;10.062;2023-08-08T08:22:31;0.30;;;0.30;;
17784;SDS011;9016;53.582;10.062;2023-08-08T08:25:00;0.30;;;0.30;;
17784;SDS011;9016;53.582;10.062;2023-08-08T08:27:28;0.30;;;0.30;;
17784;SDS011;9016;53.582;10.062;2023-08-08T08:29:56;0.30;;;0.30;;
17784;SDS011;9016;53.582;10.062;2023-08-08T08:32:24;0.30;;;0.30;;
17784;SDS011;9016;53.582;10.062;2023-08-08T08:34:52;0.30;;;0.30;;
17784;SDS011;9016;53.582;10.062;2023-08-08T08:37:21;0.30;;;0.30;;
17784;SDS011;9016;53.582;10.062;2023-08-08T08:39:49;0.30;;;0.30;;
17784;SDS011;9016;53.582;10.062;2023-08-08T08:42:17;0.30;;;0.30;;
17784;SDS011;9016;53.582;10.062;2023-08-08T08:44:45;0.30;;;0.30;;
17784;SDS011;9016;53.582;10.062;2023-08-08T08:47:14;0.30;;;0.30;;
17784;SDS011;9016;53.582;10.062;2023-08-08T08:49:44;0.30;;;0.30;;
17784;SDS011;9016;53.582;10.062;2023-08-08T08:52:13;0.40;;;0.40;;
17784;SDS011;9016;53.582;10.062;2023-08-08T08:54:42;0.30;;;0.30;;
17784;SDS011;9016;53.582;10.062;2023-08-08T08:57:10;0.30;;;0.30;;
17784;SDS011;9016;53.582;10.062;2023-08-08T08:59:39;0.30;;;0.30;;
17784;SDS011;9016;53.582;10.062;2023-08-08T09:02:07;0.40;;;0.40;;
17784;SDS011;9016;53.582;10.062;2023-08-08T09:04:36;0.30;;;0.30;;
17784;SDS011;9016;53.582;10.062;2023-08-08T09:07:05;0.30;;;0.30;;
17784;SDS011;9016;53.582;10.062;2023-08-08T09:09:34;0.30;;;0.30;;
17784;SDS011;9016;53.582;10.062;2023-08-08T09:12:04;0.30;;;0.30;;
17784;SDS011;9016;53.582;10.062;2023-08-08T09:14:32;0.30;;;0.30;;
17784;SDS011;9016;53.582;10.062;2023-08-08T09:17:01;0.30;;;0.30;;
17784;SDS011;9016;53.582;10.062;2023-08-08T09:19:29;0.28;;;0.28;;
17784;SDS011;9016;53.582;10.062;2023-08-08T09:21:57;0.20;;;0.20;;
17784;SDS011;9016;53.582;10.062;2023-08-08T09:24:25;0.30;;;0.30;;
17784;SDS011;9016;53.582;10.062;2023-08-08T09:26:55;0.38;;;0.38;;
17784;SDS011;9016;53.582;10.062;2023-08-08T09:29:25;0.30;;;0.30;;
17784;SDS011;9016;53.582;10.062;2023-08-08T09:31:52;0.30;;;0.30;;
17784;SDS011;9016;53.582;10.062;2023-08-08T09:34:23;0.30;;;0.30;;
17784;SDS011;9016;53.582;10.062;2023-08-08T09:36:52;0.47;;;0.47;;
17784;SDS011;9016;53.582;10.062;2023-08-08T09:39:20;0.30;;;0.30;;
17784;SDS011;9016;53.582;10.062;2023-08-08T09:41:48;0.30;;;0.30;;
17784;SDS011;9016;53.582;10.062;2023-08-08T09:44:17;0.30;;;0.30;;
17784;SDS011;9016;53.582;10.062;2023-08-08T09:46:46;0.30;;;0.30;;
17784;SDS011;9016;53.582;10.062;2023-08-08T09:49:17;0.30;;;0.30;;
17784;SDS011;9016;53.582;10.062;2023-08-08T09:51:46;0.30;;;0.30;;
17784;SDS011;9016;53.582;10.062;2023-08-08T09:54:15;0.30;;;0.30;;
17784;SDS011;9016;53.582;10.062;2023-08-08T09:56:43;0.30;;;0.30;;
17784;SDS011;9016;53.582;10.062;2023-08-08T09:59:11;0.30;;;0.30;;
17784;SDS011;9016;53.582;10.062;2023-08-08T10:01:40;0.30;;;0.30;;
17784;SDS011;9016;53.582;10.062;2023-08-08T10:04:11;0.30;;;0.30;;
17784;SDS011;9016;53.582;10.062;2023-08-08T10:06:40;0.30;;;0.30;;
17784;SDS011;9016;53.582;10.062;2023-08-08T10:09:07;0.30;;;0.30;;
17784;SDS011;9016;53.582;10.062;2023-08-08T10:11:36;0.30;;;0.30;;
17784;SDS011;9016;53.582;10.062;2023-08-08T10:14:04;0.30;;;0.30;;
17784;SDS011;9016;53.582;10.062;2023-08-08T10:16:32;0.30;;;0.30;;
17784;SDS011;9016;53.582;10.062;2023-08-08T10:19:03;0.30;;;0.30;;
17784;SDS011;9016;53.582;10.062;2023-08-08T10:21:33;0.30;;;0.30;;
17784;SDS011;9016;53.582;10.062;2023-08-08T10:24:03;0.30;;;0.30;;
17784;SDS011;9016;53.582;10.062;2023-08-08T10:26:33;0.40;;;0.40;;
17784;SDS011;9016;53.582;10.062;2023-08-08T10:29:01;0.30;;;0.30;;
17784;SDS011;9016;53.582;10.062;2023-08-08T10:31:33;0.30;;;0.30;;
17784;SDS011;9016;53.582;10.062;2023-08-08T10:34:03;0.20;;;0.20;;
17784;SDS011;9016;53.582;10.062;2023-08-08T10:36:48;0.30;;;0.30;;
17784;SDS011;9016;53.582;10.062;2023-08-08T10:39:17;0.30;;;0.30;;
17784;SDS011;9016;53.582;10.062;2023-08-08T10:41:46;0.20;;;0.20;;
17784;SDS011;9016;53.582;10.062;2023-08-08T10:44:21;0.30;;;0.30;;
17784;SDS011;9016;53.582;10.062;2023-08-08T10:46:51;0.30;;;0.30;;
17784;SDS011;9016;53.582;10.062;2023-08-08T10:49:22;0.30;;;0.30;;
17784;SDS011;9016;53.582;10.062;2023-08-08T10:51:52;0.30;;;0.30;;
17784;SDS011;9016;53.582;10.062;2023-08-08T10:54:22;0.30;;;0.30;;
17784;SDS011;9016;53.582;10.062;2023-08-08T10:56:54;0.30;;;0.30;;
17784;SDS011;9016;53.582;10.062;2023-08-08T10:59:24;0.30;;;0.30;;
17784;SDS011;9016;53.582;10.062;2023-08-08T11:01:53;0.30;;;0.30;;
17784;SDS011;9016;53.582;10.062;2023-08-08T11:04:23;0.20;;;0.20;;
17784;SDS011;9016;53.582;10.062;2023-08-08T11:06:54;0.23;;;0.23;;
17784;SDS011;9016;53.582;10.062;2023-08-08T11:09:22;0.20;;;0.20;;
17784;SDS011;9016;53.582;10.062;2023-08-08T11:11:52;0.30;;;0.30;;
17784;SDS011;9016;53.582;10.062;2023-08-08T11:14:20;0.30;;;0.30;;
17784;SDS011;9016;53.582;10.062;2023-08-08T11:16:50;0.30;;;0.30;;
17784;SDS011;9016;53.582;10.062;2023-08-08T11:19:19;0.28;;;0.28;;
17784;SDS011;9016;53.582;10.062;2023-08-08T11:21:49;0.30;;;0.30;;
17784;SDS011;9016;53.582;10.062;2023-08-08T11:24:18;0.20;;;0.20;;
17784;SDS011;9016;53.582;10.062;2023-08-08T11:26:47;0.20;;;0.20;;
17784;SDS011;9016;53.582;10.062;2023-08-08T11:29:16;0.30;;;0.30;;
17784;SDS011;9016;53.582;10.062;2023-08-08T11:31:44;0.30;;;0.30;;
17784;SDS011;9016;53.582;10.062;2023-08-08T11:34:14;0.30;;;0.30;;
17784;SDS011;9016;53.582;10.062;2023-08-08T11:36:43;0.30;;;0.30;;
17784;SDS011;9016;53.582;10.062;2023-08-08T11:39:11;0.30;;;0.30;;
17784;SDS011;9016;53.582;10.062;2023-08-08T11:41:41;0.30;;;0.30;;
17784;SDS011;9016;53.582;10.062;2023-08-08T11:44:10;0.20;;;0.20;;
17784;SDS011;9016;53.582;10.062;2023-08-08T11:46:42;0.30;;;0.30;;
17784;SDS011;9016;53.582;10.062;2023-08-08T11:49:13;0.30;;;0.30;;
17784;SDS011;9016;53.582;10.062;2023-08-08T11:51:42;0.33;;;0.33;;
17784;SDS011;9016;53.582;10.062;2023-08-08T11:54:10;0.30;;;0.30;;
17784;SDS011;9016;53.582;10.062;2023-08-08T11:56:40;0.30;;;0.30;;
17784;SDS011;9016;53.582;10.062;2023-08-08T11:59:09;0.30;;;0.30;;
17784;SDS011;9016;53.582;10.062;2023-08-08T12:01:39;0.30;;;0.30;;
17784;SDS011;9016;53.582;10.062;2023-08-08T12:04:10;0.30;;;0.30;;
17784;SDS011;9016;53.582;10.062;2023-08-08T12:06:40;0.30;;;0.30;;
17784;SDS011;9016;53.582;10.062;2023-08-08T12:09:10;0.30;;;0.30;;
17784;SDS011;9016;53.582;10.062;2023-08-08T12:11:40;0.30;;;0.30;;
17784;SDS011;9016;53.582;10.062;2023-08-08T12:14:11;0.30;;;0.30;;
17784;SDS011;9016;53.582;10.062;2023-08-08T12:16:40;0.30;;;0.30;;
17784;SDS011;9016;53.582;10.062;2023-08-08T12:19:10;0.30;;;0.30;;
17784;SDS011;9016;53.582;10.062;2023-08-08T12:21:40;0.30;;;0.30;;
17784;SDS011;9016;53.582;10.062;2023-08-08T12:24:08;0.25;;;0.25;;
17784;SDS011;9016;53.582;10.062;2023-08-08T12:26:36;0.30;;;0.30;;
17784;SDS011;9016;53.582;10.062;2023-08-08T12:29:06;0.30;;;0.30;;
17784;SDS011;9016;53.582;10.062;2023-08-08T12:31:34;0.30;;;0.30;;
17784;SDS011;9016;53.582;10.062;2023-08-08T12:34:02;0.30;;;0.30;;
17784;SDS011;9016;53.582;10.062;2023-08-08T12:36:30;0.30;;;0.30;;
17784;SDS011;9016;53.582;10.062;2023-08-08T12:38:58;0.30;;;0.30;;
17784;SDS011;9016;53.582;10.062;2023-08-08T12:41:26;0.30;;;0.30;;
17784;SDS011;9016;53.582;10.062;2023-08-08T12:43:55;0.20;;;0.20;;
17784;SDS011;9016;53.582;10.062;2023-08-08T12:46:25;0.30;;;0.30;;
17784;SDS011;9016;53.582;10.062;2023-08-08T12:48:53;0.30;;;0.30;;
17784;SDS011;9016;53.582;10.062;2023-08-08T12:51:21;0.30;;;0.30;;
17784;SDS011;9016;53.582;10.062;2023-08-08T12:53:49;0.30;;;0.30;;
17784;SDS011;9016;53.582;10.062;2023-08-08T12:56:17;0.30;;;0.30;;
17784;SDS011;9016;53.582;10.062;2023-08-08T12:58:45;0.30;;;0.30;;
17784;SDS011;9016;53.582;10.062;2023-08-08T13:01:13;0.30;;;0.30;;
17784;SDS011;9016;53.582;10.062;2023-08-08T13:03:43;0.30;;;0.30;;
17784;SDS011;9016;53.582;10.062;2023-08-08T13:06:21;0.30;;;0.30;;
17784;SDS011;9016;53.582;10.062;2023-08-08T13:08:49;0.22;;;0.22;;
17784;SDS011;9016;53.582;10.062;2023-08-08T13:11:20;0.30;;;0.30;;
17784;SDS011;9016;53.582;10.062;2023-08-08T13:13:48;0.30;;;0.30;;
17784;SDS011;9016;53.582;10.062;2023-08-08T13:16:16;0.30;;;0.30;;
17784;SDS011;9016;53.582;10.062;2023-08-08T13:18:45;0.28;;;0.28;;
17784;SDS011;9016;53.582;10.062;2023-08-08T13:21:13;0.30;;;0.30;;
17784;SDS011;9016;53.582;10.062;2023-08-08T13:23:41;0.30;;;0.30;;
17784;SDS011;9016;53.582;10.062;2023-08-08T13:26:09;0.30;;;0.30;;
17784;SDS011;9016;53.582;10.062;2023-08-08T13:28:39;0.30;;;0.30;;
17784;SDS011;9016;53.582;10.062;2023-08-08T13:31:08;0.20;;;0.20;;
17784;SDS011;9016;53.582;10.062;2023-08-08T13:33:36;0.30;;;0.30;;
17784;SDS011;9016;53.582;10.062;2023-08-08T13:36:06;0.30;;;0.30;;
17784;SDS011;9016;53.582;10.062;2023-08-08T13:38:34;0.30;;;0.30;;
17784;SDS011;9016;53.582;10.062;2023-08-08T13:41:02;0.30;;;0.30;;
17784;SDS011;9016;53.582;10.062;2023-08-08T13:43:30;0.30;;;0.30;;
17784;SDS011;9016;53.582;10.062;2023-08-08T13:45:58;0.30;;;0.30;;
17784;SDS011;9016;53.582;10.062;2023-08-08T13:48:26;0.20;;;0.20;;
17784;SDS011;9016;53.582;10.062;2023-08-08T13:50:54;0.30;;;0.30;;
17784;SDS011;9016;53.582;10.062;2023-08-08T13:53:24;0.30;;;0.30;;
17784;SDS011;9016;53.582;10.062;2023-08-08T13:55:52;0.30;;;0.30;;
17784;SDS011;9016;53.582;10.062;2023-08-08T13:58:20;0.30;;;0.30;;
17784;SDS011;9016;53.582;10.062;2023-08-08T14:00:48;0.28;;;0.28;;
17784;SDS011;9016;53.582;10.062;2023-08-08T14:03:16;0.30;;;0.30;;
17784;SDS011;9016;53.582;10.062;2023-08-08T14:05:45;0.30;;;0.30;;
17784;SDS011;9016;53.582;10.062;2023-08-08T14:08:13;0.30;;;0.30;;
17784;SDS011;9016;53.582;10.062;2023-08-08T14:10:42;0.30;;;0.30;;
17784;SDS011;9016;53.582;10.062;2023-08-08T14:13:10;0.30;;;0.30;;
17784;SDS011;9016;53.582;10.062;2023-08-08T14:15:38;0.30;;;0.30;;
17784;SDS011;9016;53.582;10.062;2023-08-08T14:18:07;0.20;;;0.20;;
17784;SDS011;9016;53.582;10.062;2023-08-08T14:20:35;0.30;;;0.30;;
17784;SDS011;9016;53.582;10.062;2023-08-08T14:23:04;0.20;;;0.20;;
17784;SDS011;9016;53.582;10.062;2023-08-08T14:25:33;0.30;;;0.30;;
17784;SDS011;9016;53.582;10.062;2023-08-08T14:28:04;0.30;;;0.30;;
17784;SDS011;9016;53.582;10.062;2023-08-08T14:30:34;0.30;;;0.30;;
17784;SDS011;9016;53.582;10.062;2023-08-08T14:33:04;0.30;;;0.30;;
17784;SDS011;9016;53.582;10.062;2023-08-08T14:35:32;0.30;;;0.30;;
17784;SDS011;9016;53.582;10.062;2023-08-08T14:38:00;0.30;;;0.30;;
17784;SDS011;9016;53.582;10.062;2023-08-08T14:40:28;0.30;;;0.30;;
17784;SDS011;9016;53.582;10.062;2023-08-08T14:43:00;0.30;;;0.30;;
17784;SDS011;9016;53.582;10.062;2023-08-08T14:45:30;0.30;;;0.30;;
17784;SDS011;9016;53.582;10.062;2023-08-08T14:47:58;0.30;;;0.30;;
17784;SDS011;9016;53.582;10.062;2023-08-08T14:50:26;0.30;;;0.30;;
17784;SDS011;9016;53.582;10.062;2023-08-08T14:52:54;0.30;;;0.30;;
17784;SDS011;9016;53.582;10.062;2023-08-08T14:55:22;0.30;;;0.30;;
17784;SDS011;9016;53.582;10.062;2023-08-08T14:57:50;0.30;;;0.30;;